createdAt,value
2019-04-12T00:01:03.111Z,-0.90
2019-04-12T00:03:47.752Z,-1.00
2019-04-12T00:07:11.251Z,-1.20
2019-04-12T00:10:13.388Z,-1.10
2019-04-12T00:12:57.288Z,-0.90
2019-04-12T00:16:21.417Z,-0.90
2019-04-12T00:19:22.645Z,-0.80
2019-04-12T00:22:36.058Z,-0.90
2019-04-12T00:25:48.565Z,-0.90
2019-04-12T00:28:26.516Z,-0.90
2019-04-12T00:31:51.406Z,-1.00
2019-04-12T00:34:53.507Z,-1.00
2019-04-12T00:37:42.961Z,-1.10
2019-04-12T00:44:12.071Z,-1.20
2019-04-12T00:47:41.160Z,-1.30
2019-04-12T00:50:41.298Z,-1.40
2019-04-12T00:53:21.543Z,-1.40
2019-04-12T00:55:59.601Z,-1.40
2019-04-12T00:59:17.290Z,-1.30
2019-04-12T01:05:35.621Z,-1.40
2019-04-12T01:09:14.220Z,-1.50
2019-04-12T01:11:58.668Z,-1.50
2019-04-12T01:14:59.223Z,-1.60
2019-04-12T01:17:38.706Z,-1.60
2019-04-12T01:21:16.199Z,-1.60
2019-04-12T01:24:11.643Z,-1.70
2019-04-12T01:27:00.388Z,-1.70
2019-04-12T01:29:40.109Z,-1.80
2019-04-12T01:32:29.668Z,-1.80
2019-04-12T01:35:21.156Z,-1.70
2019-04-12T01:38:45.695Z,-1.80
2019-04-12T01:45:18.337Z,-1.80
2019-04-12T01:48:20.281Z,-1.80
2019-04-12T01:50:59.240Z,-1.70
2019-04-12T01:53:40.416Z,-1.70
2019-04-12T01:56:21.460Z,-1.70
2019-04-12T01:59:24.784Z,-1.70
2019-04-12T02:02:17.535Z,-1.60
2019-04-12T02:04:50.293Z,-1.50
2019-04-12T02:10:40.803Z,-1.40
2019-04-12T02:13:24.473Z,-1.50
2019-04-12T02:16:07.650Z,-1.60
2019-04-12T02:18:49.817Z,-1.50
2019-04-12T02:21:33.288Z,-1.60
2019-04-12T02:24:15.129Z,-1.50
2019-04-12T02:27:03.376Z,-1.40
2019-04-12T02:32:51.365Z,-1.50
2019-04-12T02:35:56.257Z,-1.50
2019-04-12T02:38:52.539Z,-1.50
2019-04-12T02:45:10.971Z,-1.80
2019-04-12T02:48:04.870Z,-1.70
2019-04-12T02:51:25.912Z,-1.50
2019-04-12T02:54:18.382Z,-1.40
2019-04-12T02:57:29.362Z,-1.30
2019-04-12T03:01:12.476Z,-1.30
2019-04-12T03:03:52.055Z,-1.30
2019-04-12T03:10:06.430Z,-1.50
2019-04-12T03:13:07.217Z,-1.70
2019-04-12T03:16:18.240Z,-1.60
2019-04-12T03:22:55.739Z,-1.60
2019-04-12T03:26:08.371Z,-1.50
2019-04-12T03:28:47.590Z,-1.60
2019-04-12T03:31:47.207Z,-1.60
2019-04-12T03:41:47.511Z,-1.70
2019-04-12T03:45:16.157Z,-1.70
2019-04-12T03:48:18.692Z,-1.30
2019-04-12T03:54:26.396Z,-0.80
2019-04-12T04:07:01.036Z,-0.40
2019-04-12T04:09:55.378Z,-0.30
2019-04-12T04:12:56.967Z,-0.20
2019-04-12T04:15:48.749Z,-0.20
2019-04-12T04:18:28.810Z,-0.10
2019-04-12T04:21:23.168Z,0.00
2019-04-12T04:28:19.021Z,0.10
2019-04-12T04:30:57.569Z,0.00
2019-04-12T04:33:55.248Z,0.20
2019-04-12T04:37:24.986Z,0.20
2019-04-12T04:39:59.429Z,0.20
2019-04-12T04:42:59.792Z,0.30
2019-04-12T04:45:52.596Z,0.30
2019-04-12T04:48:29.844Z,0.40
2019-04-12T04:51:22.212Z,0.50
2019-04-12T04:54:04.422Z,0.60
2019-04-12T04:57:07.890Z,0.60
2019-04-12T05:03:35.671Z,0.80
2019-04-12T05:06:18.881Z,0.70
2019-04-12T05:12:50.534Z,0.40
2019-04-12T05:22:38.037Z,0.70
2019-04-12T05:25:14.920Z,0.60
2019-04-12T05:27:56.114Z,0.70
2019-04-12T05:30:44.544Z,0.90
2019-04-12T05:33:28.157Z,1.00
2019-04-12T05:36:19.479Z,1.00
2019-04-12T05:39:02.280Z,0.90
2019-04-12T05:42:24.153Z,0.80
2019-04-12T05:44:53.727Z,0.90
2019-04-12T05:47:43.299Z,0.90
2019-04-12T05:53:31.460Z,1.00
2019-04-12T05:56:24.327Z,1.00
2019-04-12T06:06:09.631Z,1.10
2019-04-12T06:08:53.269Z,1.00
2019-04-12T06:11:41.183Z,1.00
2019-04-12T06:18:23.370Z,1.10
2019-04-12T06:21:56.079Z,1.20
2019-04-12T06:25:11.512Z,1.30
2019-04-12T06:27:55.171Z,1.40
2019-04-12T06:31:01.602Z,1.60
2019-04-12T06:34:03.374Z,1.60
2019-04-12T06:40:18.973Z,1.70
2019-04-12T06:43:21.469Z,1.90
2019-04-12T06:46:47.428Z,1.90
2019-04-12T06:49:52.656Z,2.00
2019-04-12T06:56:11.439Z,2.40
2019-04-12T06:58:55.242Z,2.50
2019-04-12T07:02:13.785Z,2.60
2019-04-12T07:05:08.971Z,2.60
2019-04-12T07:13:38.901Z,2.90
2019-04-12T07:16:36.572Z,2.80
2019-04-12T07:19:22.735Z,2.80
2019-04-12T07:22:36.925Z,2.90
2019-04-12T07:28:25.600Z,3.10
2019-04-12T07:31:51.480Z,3.20
2019-04-12T07:38:05.784Z,3.20
2019-04-12T07:40:50.036Z,3.10
2019-04-12T07:47:10.422Z,3.40
2019-04-12T07:56:38.113Z,3.60
2019-04-12T07:59:59.387Z,3.60
2019-04-12T08:03:28.202Z,3.80
2019-04-12T08:06:32.014Z,4.10
2019-04-12T08:09:14.854Z,4.30
2019-04-12T08:12:09.313Z,4.30
2019-04-12T08:24:50.414Z,4.30
2019-04-12T08:40:04.463Z,4.70
2019-04-12T08:46:27.203Z,5.30
2019-04-12T08:49:21.509Z,5.00
2019-04-12T08:52:16.870Z,5.30
2019-04-12T08:55:10.627Z,5.20
2019-04-12T09:04:21.936Z,5.80
2019-04-12T09:07:40.953Z,6.00
2019-04-12T09:13:59.973Z,6.30
2019-04-12T09:19:49.630Z,6.70
2019-04-12T09:23:06.616Z,6.90
2019-04-12T09:26:26.192Z,7.60
2019-04-12T09:29:05.672Z,7.90
2019-04-12T09:32:11.831Z,8.50
2019-04-12T09:34:42.405Z,8.20
2019-04-12T09:37:18.080Z,7.00
2019-04-12T09:40:22.078Z,6.40
2019-04-12T09:43:20.828Z,6.20
2019-04-12T09:46:12.495Z,6.50
2019-04-12T09:59:37.410Z,6.40
2019-04-12T10:06:25.846Z,5.60
2019-04-12T10:09:26.726Z,6.20
2019-04-12T10:12:11.204Z,6.10
2019-04-12T10:14:50.712Z,5.90
2019-04-12T10:27:40.333Z,6.20
2019-04-12T10:33:47.781Z,6.00
2019-04-12T10:36:51.415Z,6.60
2019-04-12T10:42:54.493Z,6.30
2019-04-12T10:55:49.889Z,6.60
2019-04-12T10:58:48.215Z,6.60
2019-04-12T11:01:51.614Z,6.40
2019-04-12T11:04:27.961Z,6.30
2019-04-12T11:07:57.233Z,6.30
2019-04-12T11:11:09.113Z,6.30
2019-04-12T11:13:46.783Z,6.40
2019-04-12T11:16:42.018Z,6.50
2019-04-12T11:19:41.364Z,6.30
2019-04-12T11:22:57.232Z,6.50
2019-04-12T11:26:01.082Z,6.70
2019-04-12T11:29:02.303Z,6.40
2019-04-12T11:31:59.029Z,6.20
2019-04-12T11:35:37.263Z,6.30
2019-04-12T11:39:05.661Z,6.50
2019-04-12T11:42:02.789Z,6.50
2019-04-12T11:45:03.477Z,6.60
2019-04-12T11:48:19.689Z,6.60
2019-04-12T11:51:34.678Z,6.70
2019-04-12T11:54:18.083Z,7.40
2019-04-12T11:57:02.224Z,7.80
2019-04-12T12:03:32.040Z,7.40
2019-04-12T12:06:29.051Z,7.00
2019-04-12T12:09:26.802Z,7.10
2019-04-12T12:12:38.643Z,6.90
2019-04-12T12:25:08.309Z,6.90
2019-04-12T12:28:10.943Z,7.10
2019-04-12T12:30:44.652Z,7.30
2019-04-12T12:33:29.070Z,6.80
2019-04-12T12:36:20.959Z,6.80
2019-04-12T12:39:25.057Z,7.00
2019-04-12T12:42:33.474Z,7.00
2019-04-12T12:48:28.703Z,6.90
2019-04-12T12:51:18.068Z,6.80
2019-04-12T12:53:55.067Z,6.50
2019-04-12T12:56:34.161Z,6.50
2019-04-12T13:03:23.997Z,6.80
2019-04-12T13:09:36.890Z,6.60
2019-04-12T13:19:11.319Z,6.50
2019-04-12T13:24:54.258Z,6.80
2019-04-12T13:27:38.340Z,6.70
2019-04-12T13:30:45.089Z,6.80
2019-04-12T13:33:49.259Z,6.60
2019-04-12T13:43:30.026Z,6.10
2019-04-12T13:49:35.853Z,5.60
2019-04-12T13:58:52.330Z,5.80
2019-04-12T14:01:32.835Z,5.90
2019-04-12T14:04:49.385Z,5.60
2019-04-12T14:10:39.487Z,5.40
2019-04-12T14:13:19.090Z,5.60
2019-04-12T14:15:55.906Z,5.50
2019-04-12T14:18:57.365Z,5.60
2019-04-12T14:24:57.037Z,5.60
2019-04-12T14:31:32.266Z,5.60
2019-04-12T14:34:50.725Z,5.70
2019-04-12T14:37:57.663Z,5.80
2019-04-12T14:43:50.849Z,5.90
2019-04-12T14:46:34.353Z,5.70
2019-04-12T14:49:09.653Z,5.50
2019-04-12T14:52:00.203Z,5.60
2019-04-12T14:55:14.236Z,5.50
2019-04-12T15:01:51.173Z,5.20
2019-04-12T15:07:52.531Z,5.60
2019-04-12T15:10:36.871Z,5.80
2019-04-12T15:16:36.426Z,5.50
2019-04-12T15:19:26.743Z,5.60
2019-04-12T15:25:14.876Z,5.30
2019-04-12T15:28:14.057Z,5.20
2019-04-12T15:31:20.794Z,5.30
2019-04-12T15:38:17.878Z,5.70
2019-04-12T15:41:16.032Z,5.80
2019-04-12T15:44:09.879Z,5.70
2019-04-12T15:50:41.510Z,5.80
2019-04-12T15:53:28.835Z,6.10
2019-04-12T15:56:17.567Z,6.30
2019-04-12T15:59:08.758Z,6.30
2019-04-12T16:02:00.198Z,6.00
2019-04-12T16:04:41.023Z,5.60
2019-04-12T16:11:41.428Z,5.10
2019-04-12T16:14:55.301Z,4.90
2019-04-12T16:21:33.570Z,5.00
2019-04-12T16:24:23.136Z,4.80
2019-04-12T16:30:35.882Z,5.10
2019-04-12T16:34:01.432Z,4.90
2019-04-12T16:36:44.769Z,4.80
2019-04-12T16:42:41.841Z,5.10
2019-04-12T16:46:14.221Z,4.90
2019-04-12T16:48:54.656Z,4.90
2019-04-12T16:52:06.740Z,4.70
2019-04-12T16:55:12.297Z,4.50
2019-04-12T16:58:34.368Z,4.50
2019-04-12T17:01:10.371Z,4.30
2019-04-12T17:14:28.155Z,4.20
2019-04-12T17:23:57.792Z,4.00
2019-04-12T17:26:41.432Z,3.90
2019-04-12T17:29:17.594Z,3.90
2019-04-12T17:35:45.014Z,4.00
2019-04-12T17:38:39.630Z,3.90
2019-04-12T17:44:41.034Z,3.80
2019-04-12T17:51:50.214Z,3.80
2019-04-12T17:54:47.560Z,3.70
2019-04-12T18:02:06.134Z,3.60
2019-04-12T18:08:17.171Z,3.40
2019-04-12T18:11:19.679Z,3.20
2019-04-12T18:14:07.617Z,3.30
2019-04-12T18:17:07.815Z,3.30
2019-04-12T18:22:40.880Z,3.10
2019-04-12T18:25:38.777Z,3.10
2019-04-12T18:28:51.060Z,3.00
2019-04-12T18:31:55.848Z,3.00
2019-04-12T18:34:46.503Z,3.00
2019-04-12T18:37:32.551Z,3.00
2019-04-12T18:40:37.217Z,2.90
2019-04-12T18:43:46.328Z,2.90
2019-04-12T18:53:45.948Z,2.90
2019-04-12T18:56:20.505Z,2.80
2019-04-12T19:12:48.493Z,2.70
2019-04-12T19:16:16.264Z,2.70
2019-04-12T19:19:12.680Z,2.60
2019-04-12T19:21:53.690Z,2.50
2019-04-12T19:24:50.013Z,2.50
2019-04-12T19:27:44.478Z,2.60
2019-04-12T19:34:15.840Z,2.50
2019-04-12T19:37:04.334Z,2.50
2019-04-12T19:39:59.889Z,2.50
2019-04-12T19:42:41.087Z,2.40
2019-04-12T19:45:41.705Z,2.40
2019-04-12T19:48:31.964Z,2.40
2019-04-12T19:51:10.983Z,2.40
2019-04-12T19:58:07.407Z,2.20
2019-04-12T20:07:19.908Z,2.20
2019-04-12T20:10:28.497Z,2.20
2019-04-12T20:20:26.839Z,2.00
2019-04-12T20:23:39.757Z,1.90
2019-04-12T20:33:29.055Z,1.80
2019-04-12T20:36:21.848Z,1.80
2019-04-12T20:39:10.866Z,1.80
2019-04-12T20:41:47.271Z,1.80
2019-04-12T20:44:26.849Z,1.80
2019-04-12T20:53:26.670Z,1.80
2019-04-12T20:56:23.795Z,1.60
2019-04-12T20:59:17.837Z,1.60
2019-04-12T21:02:14.024Z,1.60
2019-04-12T21:05:15.214Z,1.60
2019-04-12T21:08:16.931Z,1.50
2019-04-12T21:10:53.100Z,1.60
2019-04-12T21:14:13.516Z,1.60
2019-04-12T21:17:12.404Z,1.50
2019-04-12T21:20:35.142Z,1.40
2019-04-12T21:26:42.742Z,1.30
2019-04-12T21:33:28.722Z,1.30
2019-04-12T21:39:45.881Z,1.30
2019-04-12T21:42:44.639Z,1.30
2019-04-12T21:49:42.380Z,1.30
2019-04-12T22:02:44.819Z,1.10
2019-04-12T22:12:29.228Z,1.10
2019-04-12T22:15:23.160Z,1.10
2019-04-12T22:18:27.975Z,1.10
2019-04-12T22:21:11.801Z,1.10
2019-04-12T22:24:40.750Z,1.10
2019-04-12T22:27:27.810Z,1.00
2019-04-12T22:30:10.276Z,0.90
2019-04-12T22:36:39.867Z,0.90
2019-04-12T22:39:35.055Z,0.90
2019-04-12T22:42:36.410Z,0.90
2019-04-12T22:49:00.222Z,0.80
2019-04-12T22:58:00.650Z,0.90
2019-04-12T23:00:58.440Z,0.90
2019-04-12T23:04:05.365Z,0.90
2019-04-12T23:06:51.352Z,0.80
2019-04-12T23:09:48.777Z,0.80
2019-04-12T23:12:22.598Z,0.80
2019-04-12T23:15:03.428Z,0.80
2019-04-12T23:21:34.793Z,0.90
2019-04-12T23:24:34.457Z,0.80
2019-04-12T23:27:12.612Z,0.70
2019-04-12T23:29:51.375Z,0.70
2019-04-12T23:32:43.918Z,0.70
2019-04-12T23:35:50.461Z,0.80
2019-04-12T23:38:33.276Z,0.80
2019-04-12T23:48:06.640Z,0.70
2019-04-12T23:51:05.382Z,0.70
2019-04-12T23:54:02.660Z,0.60
2019-04-12T23:56:56.478Z,0.60
